Time;durP1;ratioP1;P1;durP2;ratioP2;P2;SDS_P1;SDS_P2;PMS_P1;PMS_P2;Temp;Humidity;BMP_temperature;BMP_pressure;BME280_temperature;BME280_humidity;BME280_pressure;Samples;Min_cycle;Max_cycle;Signal;HPM_P1;HPM_P2
2024/01/02 00:00:09;;;;;;;5.87;2.20;;;9.20;97.30;;;;;;10441978;28;20227;-63
2024/01/02 00:05:13;;;;;;;6.50;1.60;;;9.20;97.40;;;;;;10439684;28;20204;-63
2024/01/02 00:10:16;;;;;;;7.03;1.60;;;9.30;97.90;;;;;;10444978;28;20231;-63
2024/01/02 00:15:21;;;;;;;5.10;1.63;;;9.30;98.10;;;;;;10440862;28;20273;-62
2024/01/02 00:20:25;;;;;;;4.33;1.47;;;9.30;97.30;;;;;;10444866;28;20226;-64
2024/01/02 00:25:29;;;;;;;8.17;2.07;;;9.20;97.80;;;;;;10442692;28;20219;-62
2024/01/02 00:30:34;;;;;;;5.60;1.87;;;9.20;97.30;;;;;;10448784;28;20204;-64
2024/01/02 00:35:45;;;;;;;4.30;1.40;;;9.20;97.60;;;;;;10448062;28;20288;-64
2024/01/02 00:40:56;;;;;;;6.70;1.50;;;9.30;97.70;;;;;;10451993;28;20572;-64
2024/01/02 00:46:05;;;;;;;6.13;1.47;;;9.30;97.70;;;;;;10447495;28;20277;-64
2024/01/02 00:51:12;;;;;;;7.33;2.20;;;9.30;97.80;;;;;;10448360;28;20204;-66
2024/01/02 00:56:19;;;;;;;3.73;1.07;;;9.20;97.90;;;;;;10452127;28;20212;-63
2024/01/02 01:01:24;;;;;;;7.75;1.65;;;9.20;98.00;;;;;;10446889;28;20203;-64
2024/01/02 01:06:28;;;;;;;5.90;1.87;;;9.20;98.00;;;;;;10449190;28;20219;-62
2024/01/02 01:11:37;;;;;;;3.47;1.40;;;9.20;98.30;;;;;;10448826;28;20200;-64
2024/01/02 01:16:45;;;;;;;4.90;1.37;;;9.20;98.50;;;;;;10444921;28;20220;-63
2024/01/02 01:21:48;;;;;;;5.17;1.50;;;9.20;98.60;;;;;;10451709;28;20258;-64
2024/01/02 01:26:52;;;;;;;6.33;2.03;;;9.30;98.50;;;;;;10448336;28;20301;-64
2024/01/02 01:31:57;;;;;;;4.57;1.30;;;9.30;98.70;;;;;;10448813;28;20757;-64
2024/01/02 01:37:01;;;;;;;2.07;0.77;;;9.30;99.10;;;;;;10445144;28;20249;-64
2024/01/02 01:42:05;;;;;;;5.07;1.20;;;9.30;99.10;;;;;;10446397;28;20195;-63
2024/01/02 01:47:12;;;;;;;7.97;2.40;;;9.30;99.70;;;;;;10446392;28;20216;-64
2024/01/02 01:52:19;;;;;;;9.00;2.60;;;9.30;99.60;;;;;;10446065;28;20200;-64
2024/01/02 01:57:29;;;;;;;7.50;2.50;;;9.20;99.10;;;;;;10447652;28;20825;-60
2024/01/02 02:02:41;;;;;;;4.50;1.20;;;9.20;99.90;;;;;;10441682;28;20226;-63
2024/01/02 02:07:54;;;;;;;6.97;1.67;;;9.30;99.90;;;;;;10443959;28;20273;-61
2024/01/02 02:13:00;;;;;;;5.77;1.63;;;9.20;99.90;;;;;;10444334;28;20208;-61
2024/01/02 02:18:05;;;;;;;10.43;2.70;;;9.20;99.90;;;;;;10443108;28;20204;-63
2024/01/02 02:23:11;;;;;;;11.03;3.50;;;9.20;99.90;;;;;;10446633;28;20202;-64
2024/01/02 02:28:19;;;;;;;3.80;1.40;;;9.20;99.90;;;;;;10444441;28;20224;-63
2024/01/02 02:33:25;;;;;;;4.20;1.67;;;9.20;99.90;;;;;;10443290;28;20357;-63
2024/01/02 02:38:30;;;;;;;6.77;3.37;;;9.20;99.90;;;;;;10450161;28;20253;-63
2024/01/02 02:43:34;;;;;;;6.33;1.93;;;9.20;99.90;;;;;;10446243;28;20285;-62
2024/01/02 02:48:44;;;;;;;7.23;2.13;;;9.20;99.90;;;;;;10442822;28;20219;-61
2024/01/02 02:53:51;;;;;;;5.47;2.33;;;9.20;99.90;;;;;;10445720;28;20231;-63
2024/01/02 02:58:57;;;;;;;5.77;2.30;;;9.20;99.90;;;;;;10441822;28;20216;-63
2024/01/02 03:04:07;;;;;;;6.97;2.30;;;9.20;99.90;;;;;;10433767;28;20292;-63
2024/01/02 03:09:12;;;;;;;3.23;1.37;;;9.20;99.90;;;;;;10435142;28;20716;-63
2024/01/02 03:14:18;;;;;;;2.87;0.60;;;9.20;99.90;;;;;;10441677;28;20247;-64
2024/01/02 03:19:25;;;;;;;1.50;0.40;;;9.20;99.90;;;;;;10442928;28;20199;-63
2024/01/02 03:24:30;;;;;;;1.30;0.60;;;9.20;99.90;;;;;;10444544;28;20224;-62
2024/01/02 03:29:34;;;;;;;2.73;1.00;;;9.10;99.90;;;;;;10439643;28;20297;-63
2024/01/02 03:34:40;;;;;;;1.27;0.70;;;9.10;99.90;;;;;;10441952;28;20223;-62
2024/01/02 03:39:45;;;;;;;5.07;1.87;;;9.10;99.90;;;;;;10445722;28;20208;-63
2024/01/02 03:44:51;;;;;;;6.67;2.17;;;9.10;99.90;;;;;;10438140;28;20219;-62
2024/01/02 03:49:57;;;;;;;2.47;0.57;;;9.10;99.90;;;;;;10444433;28;20281;-63
2024/01/02 03:55:06;;;;;;;1.60;0.53;;;9.10;99.90;;;;;;10440331;28;20288;-63
2024/01/02 04:00:13;;;;;;;3.10;0.90;;;9.10;99.90;;;;;;10448666;28;20200;-63
2024/01/02 04:05:16;;;;;;;1.13;0.57;;;9.10;99.90;;;;;;10438019;28;20290;-64
2024/01/02 04:10:21;;;;;;;2.53;0.90;;;9.10;99.90;;;;;;10450936;28;20236;-63
2024/01/02 04:15:30;;;;;;;1.27;0.40;;;9.20;99.90;;;;;;10452934;28;20211;-62
2024/01/02 04:20:33;;;;;;;2.37;0.73;;;9.20;99.90;;;;;;10453047;28;20258;-62
2024/01/02 04:25:41;;;;;;;4.23;1.53;;;9.20;99.90;;;;;;10444832;28;20216;-62
2024/01/02 04:30:53;;;;;;;4.73;1.47;;;9.20;99.90;;;;;;10452849;28;20722;-62
2024/01/02 04:35:57;;;;;;;2.33;0.73;;;9.20;99.90;;;;;;10457324;28;20224;-63
2024/01/02 04:41:02;;;;;;;4.17;1.37;;;9.20;99.90;;;;;;10445763;28;20226;-63
2024/01/02 04:46:06;;;;;;;2.93;1.07;;;9.20;99.90;;;;;;10452463;28;20220;-63
2024/01/02 04:51:09;;;;;;;1.83;0.33;;;9.20;99.90;;;;;;10422178;28;20306;-64
2024/01/02 04:56:17;;;;;;;2.13;0.70;;;9.30;99.90;;;;;;10413244;28;20228;-63
2024/01/02 05:01:21;;;;;;;1.40;0.60;;;9.20;99.90;;;;;;10414485;28;20200;-64
2024/01/02 05:06:27;;;;;;;0.57;0.43;;;9.30;99.90;;;;;;10401790;28;20281;-63
2024/01/02 05:11:38;;;;;;;1.07;0.40;;;9.30;99.90;;;;;;10409253;28;20562;-63
2024/01/02 05:16:44;;;;;;;0.63;0.33;;;9.30;99.90;;;;;;10409595;28;20228;-62
2024/01/02 05:21:54;;;;;;;0.47;0.20;;;9.30;99.90;;;;;;10407606;28;20196;-63
2024/01/02 05:27:06;;;;;;;4.33;1.30;;;9.30;99.90;;;;;;10417208;28;20573;-63
2024/01/02 05:32:10;;;;;;;4.00;1.43;;;9.30;99.90;;;;;;10407847;28;20282;-61
2024/01/02 05:37:15;;;;;;;2.23;0.93;;;9.30;99.90;;;;;;10406909;28;20274;-63
2024/01/02 05:42:20;;;;;;;0.30;0.30;;;9.30;99.90;;;;;;10405448;28;20216;-63
2024/01/02 05:47:24;;;;;;;2.17;1.10;;;9.30;99.90;;;;;;10413534;28;20328;-64
2024/01/02 05:52:28;;;;;;;0.30;0.30;;;9.30;99.90;;;;;;10412098;28;20550;-64
2024/01/02 05:57:32;;;;;;;1.47;0.73;;;9.40;99.90;;;;;;10403691;28;20626;-63
2024/01/02 06:02:36;;;;;;;0.40;0.20;;;9.40;99.90;;;;;;10409642;28;20200;-64
2024/01/02 06:07:41;;;;;;;0.77;0.37;;;9.50;99.90;;;;;;10400005;28;20224;-64
2024/01/02 06:12:46;;;;;;;1.40;0.80;;;9.50;99.90;;;;;;10413938;28;20204;-64
2024/01/02 06:17:52;;;;;;;4.33;1.63;;;9.50;99.90;;;;;;10416898;28;20220;-65
2024/01/02 06:22:58;;;;;;;2.77;1.20;;;9.60;99.90;;;;;;10406797;28;20234;-64
2024/01/02 06:28:10;;;;;;;1.17;0.37;;;9.60;99.90;;;;;;10404804;28;20209;-64
2024/01/02 06:33:18;;;;;;;4.33;1.80;;;9.70;99.90;;;;;;10401708;28;20208;-62
2024/01/02 06:38:28;;;;;;;1.57;1.07;;;9.80;99.90;;;;;;10404016;28;20200;-62
2024/01/02 06:43:41;;;;;;;0.23;0.23;;;9.80;99.90;;;;;;10405666;28;20304;-64
2024/01/02 06:48:48;;;;;;;0.80;0.30;;;9.80;99.90;;;;;;10407527;28;20212;-64
2024/01/02 06:53:54;;;;;;;5.53;1.93;;;9.90;99.90;;;;;;10403686;28;20623;-64
2024/01/02 06:59:00;;;;;;;0.43;0.43;;;9.90;99.90;;;;;;10402759;28;20509;-64
2024/01/02 07:04:10;;;;;;;3.10;1.50;;;10.00;99.90;;;;;;10396066;28;20229;-62
2024/01/02 07:09:14;;;;;;;1.17;0.60;;;10.00;99.90;;;;;;10395015;28;20224;-64
2024/01/02 07:14:18;;;;;;;2.10;1.03;;;10.10;99.90;;;;;;10409012;28;20297;-64
2024/01/02 07:19:24;;;;;;;2.80;1.47;;;10.10;99.90;;;;;;10406655;28;20231;-63
2024/01/02 07:24:33;;;;;;;2.93;1.60;;;10.20;99.90;;;;;;10398337;28;20748;-61
2024/01/02 07:29:44;;;;;;;0.90;0.90;;;10.30;99.90;;;;;;10404787;28;20270;-63
2024/01/02 07:34:54;;;;;;;1.07;0.97;;;10.30;99.90;;;;;;10400317;28;20228;-64
2024/01/02 07:40:04;;;;;;;1.90;0.80;;;10.40;99.90;;;;;;10399923;28;20266;-64
2024/01/02 07:45:11;;;;;;;1.50;0.80;;;10.50;99.90;;;;;;10402347;28;20251;-64
2024/01/02 07:50:21;;;;;;;1.33;1.00;;;10.60;99.90;;;;;;10404083;28;20212;-62
2024/01/02 07:55:31;;;;;;;2.28;1.55;;;10.60;99.90;;;;;;10403021;28;20229;-61
2024/01/02 08:00:36;;;;;;;1.40;0.77;;;10.70;99.90;;;;;;10405429;28;20193;-64
2024/01/02 08:05:45;;;;;;;0.82;0.80;;;10.80;99.90;;;;;;10390219;28;20255;-63
2024/01/02 08:10:51;;;;;;;2.20;1.27;;;10.90;99.90;;;;;;10400663;28;20578;-64
2024/01/02 08:15:56;;;;;;;1.00;0.88;;;10.90;99.90;;;;;;10408554;28;20283;-64
2024/01/02 08:21:05;;;;;;;1.60;1.00;;;11.00;99.90;;;;;;10407067;28;20211;-63
2024/01/02 08:26:13;;;;;;;0.97;0.97;;;11.00;99.90;;;;;;10401822;28;20225;-63
2024/01/02 08:31:21;;;;;;;1.05;0.70;;;11.10;99.90;;;;;;10397296;28;20370;-62
2024/01/02 08:36:25;;;;;;;1.47;1.37;;;11.20;99.90;;;;;;10401056;28;20290;-61
2024/01/02 08:41:28;;;;;;;2.40;2.20;;;11.20;99.90;;;;;;10413686;28;20438;-61
2024/01/02 08:46:40;;;;;;;1.40;1.30;;;11.40;99.90;;;;;;10415448;28;20266;-61
2024/01/02 08:51:47;;;;;;;1.58;1.30;;;11.50;99.90;;;;;;10410357;28;20299;-64
2024/01/02 08:56:56;;;;;;;1.48;1.15;;;11.60;99.90;;;;;;10421205;28;20277;-63
2024/01/02 09:02:01;;;;;;;1.30;1.20;;;11.60;99.90;;;;;;10413618;28;20748;-63
2024/01/02 09:07:05;;;;;;;2.85;2.05;;;11.60;99.90;;;;;;10399989;28;20224;-62
2024/01/02 09:12:09;;;;;;;1.85;1.23;;;11.60;99.90;;;;;;10417335;28;20239;-62
2024/01/02 09:17:14;;;;;;;1.52;1.20;;;11.60;99.90;;;;;;10411105;28;20630;-63
2024/01/02 09:22:17;;;;;;;1.30;1.20;;;11.70;99.90;;;;;;10406437;28;20201;-62
2024/01/02 09:27:23;;;;;;;2.58;1.60;;;11.70;99.90;;;;;;10403456;28;20282;-64
2024/01/02 09:32:28;;;;;;;1.35;1.00;;;11.70;99.90;;;;;;10403945;28;20247;-63
2024/01/02 09:37:32;;;;;;;2.17;1.48;;;11.80;99.90;;;;;;10411404;28;20224;-63
2024/01/02 09:42:43;;;;;;;1.25;0.90;;;11.80;99.90;;;;;;10408393;28;20204;-64
2024/01/02 09:48:13;;;;;;;2.03;1.38;;;11.90;99.90;;;;;;10407435;28;20278;-63
2024/01/02 09:53:40;;;;;;;1.00;0.90;;;11.90;99.90;;;;;;10409918;28;20223;-63
2024/01/02 09:59:00;;;;;;;1.70;0.90;;;11.90;99.90;;;;;;10418085;28;20254;-62
2024/01/02 10:04:30;;;;;;;1.58;1.13;;;11.90;99.90;;;;;;10402176;28;20223;-63
2024/01/02 10:09:47;;;;;;;1.65;1.25;;;11.90;99.90;;;;;;10407057;28;20742;-63
2024/01/02 10:15:05;;;;;;;0.77;0.77;;;11.90;99.90;;;;;;10404623;28;20223;-62
2024/01/02 10:20:18;;;;;;;1.13;1.02;;;11.90;99.90;;;;;;10404966;28;20555;-62
2024/01/02 10:25:23;;;;;;;1.80;0.90;;;12.00;99.90;;;;;;10404555;28;20224;-63
2024/01/02 10:30:34;;;;;;;0.70;0.68;;;12.00;99.90;;;;;;10407206;28;20212;-63
2024/01/02 10:35:45;;;;;;;0.80;0.80;;;12.00;99.90;;;;;;10407216;28;20220;-63
2024/01/02 10:40:56;;;;;;;0.90;0.90;;;12.00;99.90;;;;;;10406508;28;20212;-62
2024/01/02 10:46:10;;;;;;;1.88;0.80;;;12.00;99.90;;;;;;10407013;28;20243;-63
2024/01/02 10:51:23;;;;;;;0.50;0.50;;;12.00;99.90;;;;;;10404352;28;20263;-63
2024/01/02 10:56:39;;;;;;;1.13;0.90;;;12.00;99.90;;;;;;10413168;28;20220;-63
2024/01/02 11:01:47;;;;;;;1.98;1.00;;;12.00;99.90;;;;;;10405340;28;21783;-62
2024/01/02 11:06:57;;;;;;;0.80;0.80;;;12.10;99.90;;;;;;10395068;28;20228;-63
2024/01/02 11:12:02;;;;;;;1.02;0.57;;;12.10;99.90;;;;;;10405455;28;20250;-61
2024/01/02 11:17:19;;;;;;;1.58;0.80;;;12.10;99.90;;;;;;10399398;28;20766;-62
2024/01/02 11:22:31;;;;;;;1.38;0.60;;;12.10;99.90;;;;;;10402066;28;20197;-63
2024/01/02 11:27:38;;;;;;;1.73;1.00;;;12.20;99.90;;;;;;10406291;28;20215;-62
2024/01/02 11:32:52;;;;;;;0.43;0.30;;;12.20;99.90;;;;;;10398875;28;20228;-62
2024/01/02 11:38:06;;;;;;;1.05;0.40;;;12.20;99.90;;;;;;10400236;28;20749;-62
2024/01/02 11:43:20;;;;;;;0.55;0.30;;;12.20;99.90;;;;;;10401452;28;20306;-63
2024/01/02 11:48:37;;;;;;;0.73;0.43;;;12.30;99.90;;;;;;10405433;28;20754;-62
2024/01/02 11:53:54;;;;;;;0.20;0.20;;;12.30;99.90;;;;;;10405113;28;20266;-63
2024/01/02 11:59:08;;;;;;;0.22;0.22;;;12.30;99.90;;;;;;10412056;28;20208;-61
2024/01/02 12:04:23;;;;;;;0.40;0.40;;;12.20;99.90;;;;;;10395826;28;20279;-63
2024/01/02 12:09:31;;;;;;;1.38;0.57;;;12.20;99.90;;;;;;10397263;28;20881;-63
2024/01/02 12:14:41;;;;;;;1.17;0.55;;;12.20;99.90;;;;;;10400986;28;20634;-64
2024/01/02 12:19:48;;;;;;;0.80;0.40;;;12.20;99.90;;;;;;10409594;28;20262;-63
2024/01/02 12:24:53;;;;;;;0.70;0.30;;;12.20;99.90;;;;;;10412917;28;20228;-63
2024/01/02 12:29:58;;;;;;;0.75;0.40;;;12.20;99.90;;;;;;10413122;28;20258;-63
2024/01/02 12:35:05;;;;;;;0.85;0.57;;;12.10;99.90;;;;;;10407241;28;20219;-62
2024/01/02 12:40:13;;;;;;;0.75;0.40;;;12.00;99.90;;;;;;10411574;28;20583;-63
2024/01/02 12:45:20;;;;;;;0.80;0.50;;;12.00;99.90;;;;;;10406265;28;20232;-63
2024/01/02 12:50:24;;;;;;;6.50;2.78;;;11.90;99.90;;;;;;10407479;28;20257;-63
2024/01/02 12:55:33;;;;;;;1.83;1.48;;;11.90;99.90;;;;;;10412582;28;20259;-64
2024/01/02 13:00:37;;;;;;;1.58;1.35;;;11.80;99.90;;;;;;10404090;28;20235;-65
2024/01/02 13:05:43;;;;;;;3.85;2.60;;;11.80;99.90;;;;;;10411575;28;20223;-62
2024/01/02 13:10:49;;;;;;;3.17;2.10;;;11.80;99.90;;;;;;10410911;28;20254;-64
2024/01/02 13:15:57;;;;;;;2.90;1.38;;;11.80;99.90;;;;;;10409196;28;20224;-64
2024/01/02 13:21:00;;;;;;;4.55;2.50;;;11.70;99.90;;;;;;10409041;28;20212;-63
2024/01/02 13:26:05;;;;;;;3.10;1.83;;;11.70;99.90;;;;;;10408838;28;20233;-64
2024/01/02 13:31:11;;;;;;;7.15;3.45;;;11.60;99.90;;;;;;10412614;28;20193;-62
2024/01/02 13:36:14;;;;;;;5.68;2.85;;;11.60;99.90;;;;;;10404789;28;20608;-63
2024/01/02 13:41:20;;;;;;;6.15;3.00;;;11.60;99.90;;;;;;10409444;28;20283;-62
2024/01/02 13:46:24;;;;;;;5.90;3.05;;;11.50;99.90;;;;;;10413888;28;20723;-64
2024/01/02 13:51:30;;;;;;;4.18;2.20;;;11.50;99.90;;;;;;10411111;28;20204;-62
2024/01/02 13:56:36;;;;;;;7.97;3.38;;;11.40;99.90;;;;;;10411752;28;20227;-61
2024/01/02 14:01:42;;;;;;;7.03;3.38;;;11.40;99.90;;;;;;10400402;28;20216;-63
2024/01/02 14:06:55;;;;;;;7.93;4.10;;;11.40;99.90;;;;;;10402559;28;20570;-61
2024/01/02 14:12:01;;;;;;;7.78;3.67;;;11.40;99.90;;;;;;10413479;28;20204;-61
2024/01/02 14:17:06;;;;;;;4.97;2.60;;;11.40;99.90;;;;;;10406627;28;20563;-61
2024/01/02 14:22:25;;;;;;;5.28;2.38;;;11.40;99.90;;;;;;10413174;28;20754;-62
2024/01/02 14:27:43;;;;;;;3.95;2.22;;;11.30;99.90;;;;;;10404014;28;20216;-61
2024/01/02 14:33:12;;;;;;;7.32;3.55;;;11.30;99.90;;;;;;10404167;28;20250;-62
2024/01/02 14:38:22;;;;;;;7.07;3.70;;;11.30;99.90;;;;;;10399305;28;20284;-62
2024/01/02 14:43:38;;;;;;;7.13;2.88;;;11.30;99.90;;;;;;10399588;28;20224;-61
2024/01/02 14:49:05;;;;;;;3.75;2.25;;;11.20;99.90;;;;;;10398580;28;20253;-63
2024/01/02 14:54:27;;;;;;;3.53;1.50;;;11.20;99.90;;;;;;10405163;28;20220;-63
2024/01/02 14:59:44;;;;;;;4.90;2.63;;;11.20;99.90;;;;;;10408721;28;20234;-63
2024/01/02 15:05:06;;;;;;;4.75;2.55;;;11.20;99.90;;;;;;10385785;28;20220;-63
2024/01/02 15:10:20;;;;;;;2.95;1.90;;;11.20;99.90;;;;;;10390531;28;20263;-63
2024/01/02 15:15:36;;;;;;;2.95;1.60;;;11.20;99.90;;;;;;10399368;28;20546;-63
2024/01/02 15:20:53;;;;;;;1.95;1.55;;;11.20;99.90;;;;;;10396126;28;20249;-63
2024/01/02 15:26:06;;;;;;;0.98;0.85;;;11.20;99.90;;;;;;10402387;28;20602;-62
2024/01/02 15:31:14;;;;;;;2.78;1.50;;;11.20;99.90;;;;;;10399206;28;20743;-64
2024/01/02 15:36:21;;;;;;;1.58;1.00;;;11.20;99.90;;;;;;10402171;28;20220;-62
2024/01/02 15:41:25;;;;;;;1.48;1.08;;;11.20;99.90;;;;;;10410418;28;20257;-61
2024/01/02 15:46:43;;;;;;;4.17;2.07;;;11.20;99.90;;;;;;10404681;28;20293;-62
2024/01/02 15:51:57;;;;;;;4.80;3.42;;;11.20;99.90;;;;;;10406799;28;20253;-63
2024/01/02 15:57:08;;;;;;;3.67;2.17;;;11.20;99.90;;;;;;10403845;28;20228;-64
2024/01/02 16:02:41;;;;;;;2.63;1.67;;;11.20;99.90;;;;;;10399875;28;20574;-62
2024/01/02 16:07:58;;;;;;;3.63;2.70;;;11.20;99.90;;;;;;10397725;28;20337;-63
2024/01/02 16:13:38;;;;;;;3.20;1.85;;;11.20;99.90;;;;;;10390635;28;20870;-63
2024/01/02 16:19:12;;;;;;;5.63;2.93;;;11.20;99.90;;;;;;10368401;28;20200;-62
2024/01/02 16:24:42;;;;;;;6.32;3.13;;;11.10;99.90;;;;;;10402328;28;20228;-62
2024/01/02 16:30:17;;;;;;;4.97;2.30;;;11.10;99.90;;;;;;10399259;28;20208;-64
2024/01/02 16:35:39;;;;;;;1.83;1.23;;;11.10;99.90;;;;;;10401808;28;20696;-63
2024/01/02 16:40:56;;;;;;;2.05;0.95;;;11.10;99.90;;;;;;10408498;28;20710;-63
2024/01/02 16:46:02;;;;;;;6.70;3.08;;;11.10;99.90;;;;;;10405337;28;20342;-63
2024/01/02 16:51:08;;;;;;;1.40;0.90;;;11.20;99.90;;;;;;10407693;28;20234;-63
2024/01/02 16:56:12;;;;;;;3.35;1.35;;;11.10;99.90;;;;;;10404882;28;20267;-63
2024/01/02 17:01:18;;;;;;;7.40;3.03;;;11.10;99.90;;;;;;10402811;28;20196;-62
2024/01/02 17:06:23;;;;;;;1.83;1.20;;;11.10;99.90;;;;;;10404302;28;20221;-63
2024/01/02 17:11:29;;;;;;;2.92;1.50;;;11.20;99.90;;;;;;10401350;28;20205;-62
2024/01/02 17:16:33;;;;;;;3.38;1.38;;;11.20;99.90;;;;;;10406641;28;20216;-64
2024/01/02 17:21:38;;;;;;;6.45;1.75;;;11.20;99.90;;;;;;10409140;28;20543;-63
2024/01/02 17:26:41;;;;;;;5.20;2.45;;;11.20;99.90;;;;;;10404818;28;20650;-63
2024/01/02 17:31:46;;;;;;;5.15;2.22;;;11.20;99.90;;;;;;10409759;28;20212;-64
2024/01/02 17:36:52;;;;;;;1.35;0.68;;;11.20;99.90;;;;;;10400658;28;20219;-63
2024/01/02 17:41:57;;;;;;;4.07;1.50;;;11.20;99.90;;;;;;10405584;28;20216;-62
2024/01/02 17:47:00;;;;;;;5.50;2.08;;;11.20;99.90;;;;;;10419745;28;20228;-62
2024/01/02 17:52:06;;;;;;;1.95;1.13;;;11.20;99.90;;;;;;10407867;28;21453;-61
2024/01/02 17:57:22;;;;;;;2.88;1.05;;;11.20;99.90;;;;;;10416928;28;20219;-65
2024/01/02 18:02:40;;;;;;;2.83;1.52;;;11.20;99.90;;;;;;10406774;28;20266;-62
2024/01/02 18:08:00;;;;;;;5.03;2.10;;;11.20;99.90;;;;;;10401443;28;20216;-62
2024/01/02 18:13:11;;;;;;;2.75;1.48;;;11.30;99.90;;;;;;10411321;28;20269;-62
2024/01/02 18:18:23;;;;;;;1.45;0.70;;;11.30;99.90;;;;;;10413111;28;20203;-65
2024/01/02 18:23:37;;;;;;;1.92;1.23;;;11.30;99.90;;;;;;10413195;28;20220;-62
2024/01/02 18:28:51;;;;;;;1.83;1.00;;;11.30;99.90;;;;;;10403692;28;20204;-63
2024/01/02 18:34:10;;;;;;;3.42;1.15;;;11.40;99.90;;;;;;10403990;28;20293;-63
2024/01/02 18:39:24;;;;;;;1.88;0.80;;;11.40;99.90;;;;;;10403796;28;20230;-63
2024/01/02 18:44:39;;;;;;;2.38;1.17;;;11.40;99.90;;;;;;10401299;28;20806;-63
2024/01/02 18:49:47;;;;;;;5.05;2.17;;;11.40;99.90;;;;;;10404806;28;20224;-63
2024/01/02 18:55:05;;;;;;;4.72;2.10;;;11.50;99.90;;;;;;10404338;28;20246;-64
2024/01/02 19:00:12;;;;;;;1.77;0.60;;;11.60;99.90;;;;;;10401760;28;20320;-63
2024/01/02 19:05:15;;;;;;;1.65;0.80;;;11.60;99.90;;;;;;10402016;28;20233;-63
2024/01/02 19:10:21;;;;;;;1.23;1.00;;;11.70;99.90;;;;;;10401280;28;20598;-63
2024/01/02 19:15:25;;;;;;;0.85;0.40;;;11.80;99.90;;;;;;10405227;28;20224;-62
2024/01/02 19:20:33;;;;;;;1.17;0.50;;;11.90;99.90;;;;;;10404296;28;20250;-61
2024/01/02 19:25:39;;;;;;;0.82;0.40;;;11.90;99.90;;;;;;10403168;28;20285;-62
2024/01/02 19:30:45;;;;;;;1.98;0.60;;;12.00;99.90;;;;;;10406500;28;20234;-63
2024/01/02 19:35:49;;;;;;;2.25;0.70;;;12.10;99.90;;;;;;10410735;28;20220;-63
2024/01/02 19:40:57;;;;;;;3.58;1.15;;;12.10;99.90;;;;;;10405441;28;20204;-63
2024/01/02 19:46:03;;;;;;;0.98;0.70;;;12.20;99.90;;;;;;10403150;28;20715;-63
2024/01/02 19:51:10;;;;;;;0.75;0.55;;;12.20;99.90;;;;;;10401594;28;20251;-64
2024/01/02 19:56:15;;;;;;;3.92;1.10;;;12.20;99.90;;;;;;10399423;28;20576;-65
2024/01/02 20:01:28;;;;;;;2.05;0.98;;;12.20;99.90;;;;;;10400359;28;20209;-62
2024/01/02 20:06:53;;;;;;;2.63;0.95;;;12.30;99.90;;;;;;10402593;28;20228;-62
2024/01/02 20:11:58;;;;;;;2.22;0.90;;;12.30;99.90;;;;;;10400391;28;20262;-63
2024/01/02 20:17:03;;;;;;;2.72;0.85;;;12.30;99.90;;;;;;10403620;28;20216;-62
2024/01/02 20:22:07;;;;;;;8.23;1.05;;;12.30;99.90;;;;;;10406015;28;20575;-63
2024/01/02 20:27:30;;;;;;;5.10;1.25;;;12.40;99.90;;;;;;10410677;28;20746;-61
2024/01/02 20:32:41;;;;;;;3.38;0.93;;;12.40;99.90;;;;;;10407773;28;20199;-61
2024/01/02 20:37:45;;;;;;;5.45;1.30;;;12.40;99.90;;;;;;10402935;28;20224;-63
2024/01/02 20:42:50;;;;;;;5.10;1.25;;;12.40;99.90;;;;;;10407204;28;21429;-62
2024/01/02 20:48:02;;;;;;;2.72;0.98;;;12.50;99.90;;;;;;10410778;28;20228;-63
2024/01/02 20:53:30;;;;;;;2.22;1.02;;;12.50;99.90;;;;;;10411751;28;20200;-63
2024/01/02 20:59:12;;;;;;;2.80;0.90;;;12.50;99.90;;;;;;10406633;28;20222;-63
2024/01/02 21:04:35;;;;;;;2.65;0.88;;;12.50;99.90;;;;;;10403955;28;20286;-63
2024/01/02 21:09:46;;;;;;;5.78;1.40;;;12.50;99.90;;;;;;10414569;28;20246;-63
2024/01/02 21:14:51;;;;;;;4.95;1.00;;;12.60;99.90;;;;;;10404321;28;20220;-63
2024/01/02 21:19:56;;;;;;;3.42;1.00;;;12.60;99.90;;;;;;10412241;28;20267;-63
2024/01/02 21:25:04;;;;;;;6.72;1.23;;;12.60;99.90;;;;;;10413227;28;20280;-62
2024/01/02 21:30:11;;;;;;;5.35;1.00;;;12.60;99.90;;;;;;10417649;28;20212;-62
2024/01/02 21:35:14;;;;;;;7.13;1.17;;;12.50;99.90;;;;;;10411010;28;20217;-63
2024/01/02 21:40:52;;;;;;;5.10;1.40;;;12.60;99.30;;;;;;10415767;28;20278;-63
2024/01/02 21:46:25;;;;;;;4.20;1.25;;;12.50;99.00;;;;;;10401536;28;20228;-61
2024/01/02 21:51:31;;;;;;;4.03;1.05;;;12.50;98.60;;;;;;10407886;28;20262;-61
2024/01/02 21:56:36;;;;;;;6.63;1.70;;;12.50;99.00;;;;;;10411692;28;20247;-60
2024/01/02 22:01:42;;;;;;;4.85;1.30;;;12.40;99.30;;;;;;10411217;28;20603;-62
2024/01/02 22:06:46;;;;;;;4.35;1.45;;;12.40;98.90;;;;;;10411569;28;20270;-62
2024/01/02 22:11:54;;;;;;;6.53;1.70;;;12.30;99.60;;;;;;10417318;28;20208;-61
2024/01/02 22:17:00;;;;;;;3.70;1.40;;;12.30;99.90;;;;;;10409354;28;20228;-62
2024/01/02 22:22:10;;;;;;;7.68;1.48;;;12.30;99.90;;;;;;10412311;28;20765;-61
2024/01/02 22:27:37;;;;;;;5.10;1.35;;;12.20;99.90;;;;;;10408707;28;20220;-60
2024/01/02 22:32:42;;;;;;;10.15;1.60;;;12.30;98.50;;;;;;10399331;28;20204;-61
2024/01/02 22:37:46;;;;;;;7.90;1.77;;;12.30;97.90;;;;;;10408555;28;20216;-61
2024/01/02 22:42:49;;;;;;;9.45;2.00;;;12.30;97.20;;;;;;10408539;28;20248;-62
2024/01/02 22:47:54;;;;;;;6.55;1.88;;;12.30;97.00;;;;;;10402477;28;20572;-62
2024/01/02 22:52:58;;;;;;;7.93;1.65;;;12.20;97.30;;;;;;10404823;28;20269;-61
2024/01/02 22:58:02;;;;;;;8.57;1.60;;;12.20;96.40;;;;;;10410462;28;20217;-62
2024/01/02 23:03:07;;;;;;;8.75;1.52;;;12.20;96.10;;;;;;10407641;28;20254;-61
2024/01/02 23:08:18;;;;;;;7.53;1.73;;;12.20;96.70;;;;;;10395663;28;20282;-62
2024/01/02 23:13:38;;;;;;;11.05;2.00;;;12.20;95.00;;;;;;10406050;28;20199;-61
2024/01/02 23:19:06;;;;;;;6.60;2.03;;;12.30;95.60;;;;;;10405391;28;20266;-62
2024/01/02 23:24:10;;;;;;;8.18;1.63;;;12.20;95.40;;;;;;10401450;28;20225;-61
2024/01/02 23:29:33;;;;;;;7.97;2.00;;;12.20;95.70;;;;;;10406291;28;20594;-62
2024/01/02 23:34:45;;;;;;;6.13;1.75;;;12.20;96.00;;;;;;10411092;28;20228;-61
2024/01/02 23:39:49;;;;;;;7.32;2.10;;;12.20;95.90;;;;;;10412507;28;20766;-62
2024/01/02 23:44:53;;;;;;;8.85;2.15;;;12.20;95.90;;;;;;10407643;28;20220;-61
2024/01/02 23:49:58;;;;;;;8.77;2.20;;;12.20;95.80;;;;;;10401261;28;20693;-62
2024/01/02 23:55:02;;;;;;;9.75;2.38;;;12.10;96.00;;;;;;10412094;28;20760;-62
